首页
METAR-TAF:

METAR-TAF

机场 :

卡尔斯鲁厄/巴登-巴登机场

巴登-巴登, 德国

纬度: 48-46-43N, 经度: 008-04-47E, 海拔: 124米

当前天气观测

该预报发布于32分钟前的17:20 UTC
风速5节,风向
温度 23°C
湿度 44%
气压 1013 hPa
能见度10公里或以上
1500米以下无云,无积雨云

METAR: EDSB 241720Z 36005KT CAVOK 23/10 Q1013

时间: 19:52 (17:52 UTC)

预报

该预报发布于52分钟前的17:00 UTC
预报有效从24日的 18点(UTC)到 25日的 18点(UTC)
风速3节,风向多变
能见度10公里或以上
1500米以下无云,无积雨云
几率 30% :
短暂存在
从 25日的 04点(UTC)到 25日的 09点(UTC)
风速12节,风向
散云层高于6000英尺, 塔状积云.
成为
从 25日的 07点(UTC)到 25日的 09点(UTC)
风速5节,风向
几率 40% :
短暂存在
从 25日的 12点(UTC)到 25日的 18点(UTC)
风速15节,风向北转西北,有时为25节阵风
散云层高于3000英尺, 积雨云.
雷暴, 雨

TAF: EDSB 241700Z 2418/2518 VRB03KT CAVOK PROB30 TEMPO 2504/2509 36012KT SCT060TCU BECMG 2507/2509 36005KT PROB40 TEMPO 2512/2518 34015G25KT TSRA SCT030CB

超过4000个机场的气象观测和天气预报(METAR&TAF报告)。

可查询的气象台以黄色和红色小点在地图上表示。

将鼠标移到小点上方,可查看气象台名称。

然后点击查看天气观测和预报。

如需切换地图:点击带黑十字的绿色按钮放大地图;点击带横线的绿色按钮缩小地图;或者点击绿色箭头查看邻近地区的地图。


METAR-TAF: